Latest Weather Observations for Milingimbi

IDD60801

Issued at 4:02 pm CST Sunday 21 December 2014 (issued every 30 minutes, with the page automatically refreshed every 10 minutes)

About weather observations | Map of weather stations | Latest weather observations for NT | Other Formats
Station Details ID: 014404 Name: MILINGIMBI AIRPORT Lat: -12.09 Lon: 134.89 Height: 15.0 m
Data from the previous 72 hours. | See also: Recent months at Milingimbi
Date/Time
CST
Temp
°C
App
Temp
°C
Dew
Point
Rel
Hum
%
Delta-T
°C
Wind Press
QNH
hPa
Press
MSL
hPa
Rain
since 9 am
mm
Dir
 
Spd
km/h
Gust
km/h
Spd
kts
Gust
kts
21/04:00pm 32.5 35.6 22.9 57 6.6 N 11 20 6 11 1005.3 - 0.0
21/03:30pm 33.3 35.5 21.8 51 7.8 NNE 13 20 7 11 1005.6 - 0.0
21/03:00pm 33.1 35.8 22.8 54 7.1 NNE 13 20 7 11 1006.2 1006.0 0.0
21/02:30pm 33.6 36.4 23.0 54 7.3 N 13 24 7 13 1006.7 - 0.0
21/02:00pm 33.0 35.6 23.3 56 6.7 N 15 24 8 13 1007.0 - 0.0
21/01:30pm 33.4 35.9 23.1 54 7.1 N 15 22 8 12 1007.6 - 0.0
21/01:00pm 34.1 36.8 22.8 51 7.8 N 13 24 7 13 1008.1 - 0.0
21/12:30pm 34.4 36.9 23.1 51 7.8 N 15 24 8 13 1008.7 - 0.0
21/12:00pm 33.2 35.6 22.9 54 7.1 N 15 24 8 13 1009.0 1008.8 0.0
21/11:30am 33.7 36.1 23.7 56 7.0 N 17 24 9 13 1009.3 - 0.0
21/11:00am 33.3 36.1 23.0 54 7.1 N 13 22 7 12 1009.7 - 0.0
21/10:30am 33.5 36.6 22.9 53 7.3 NNW 11 20 6 11 1009.8 - 0.0
21/10:00am 34.0 37.8 23.4 54 7.4 NW 9 19 5 10 1010.1 - 0.0
21/09:30am 31.9 35.1 22.3 56 6.5 NNW 9 15 5 8 1010.0 - 0.0
21/09:00am 32.8 35.0 23.2 57 6.6 WNW 17 22 9 12 1009.8 1009.6 0.0
21/08:30am 31.3 34.9 23.7 64 5.3 W 11 19 6 10 1009.6 - 0.0
21/08:00am 31.0 35.9 24.4 68 4.6 WNW 6 13 3 7 1009.3 - 0.0
21/07:30am 30.5 35.3 24.4 70 4.3 W 7 9 4 5 1009.1 - 0.0
21/07:00am 29.8 35.0 24.2 72 3.9 W 4 7 2 4 1008.8 - 0.0
21/06:30am 28.9 34.9 24.2 76 3.3 CALM 0 0 0 0 1008.3 - 0.0
21/06:00am 28.5 33.3 24.1 77 3.1 NW 6 7 3 4 1007.7 1007.5 0.0
21/05:30am 28.7 34.4 23.8 75 3.4 CALM 0 0 0 0 1007.8 - 0.0
21/05:00am 29.2 34.2 23.9 73 3.7 N 4 7 2 4 1007.6 - 0.0
21/04:30am 29.4 33.9 23.6 71 4.0 N 6 11 3 6 1007.3 - 0.0
21/04:00am 29.5 34.2 23.9 72 3.9 N 6 11 3 6 1007.3 - 0.0
21/03:30am 29.5 33.9 23.4 69 4.2 N 6 9 3 5 1007.4 - 0.0
21/03:00am 29.4 33.9 23.6 71 4.0 NNW 6 7 3 4 1007.6 1007.4 0.0
21/02:30am 29.5 33.9 23.4 69 4.2 NNW 6 9 3 5 1007.8 - 0.0
21/02:00am 29.5 34.2 23.4 69 4.2 N 4 7 2 4 1008.1 - 0.0
21/01:30am 29.5 33.9 23.4 69 4.2 N 6 7 3 4 1008.2 - 0.0
21/01:00am 29.6 34.8 23.5 69 4.2 N 2 6 1 3 1008.5 - 0.0
21/12:30am 29.8 34.6 23.5 69 4.3 N 4 7 2 4 1008.9 - 0.0
21/12:00am 30.0 34.4 23.4 67 4.6 NNW 6 9 3 5 1009.0 1008.8 0.0
 
Date/Time
CST
Temp
°C
App
Temp
°C
Dew
Point
Rel
Hum
%
Delta-T
°C
Wind Press
QNH
hPa
Press
MSL
hPa
Rain
since 9 am
mm
Dir
 
Spd
km/h
Gust
km/h
Spd
kts
Gust
kts
20/11:30pm 30.1 34.4 23.3 67 4.7 NNW 6 11 3 6 1008.8 - 0.0
20/11:00pm 30.2 34.4 23.4 67 4.7 N 7 13 4 7 1008.6 - 0.0
20/10:30pm 30.2 34.2 23.1 65 4.9 N 7 13 4 7 1008.2 - 0.0
20/10:00pm 30.2 34.4 23.1 65 4.9 N 6 9 3 5 1008.2 - 0.0
20/09:30pm 30.4 34.2 22.8 64 5.2 NNW 7 13 4 7 1007.8 - 0.0
20/09:00pm 30.5 34.4 22.9 64 5.2 N 7 11 4 6 1007.5 1007.3 0.0
20/08:30pm 30.5 34.7 23.4 66 4.9 N 7 11 4 6 1007.2 - 0.0
20/08:00pm 30.6 34.7 23.3 65 5.0 NNW 7 11 4 6 1007.0 - 0.0
20/07:30pm 30.9 34.5 23.0 62 5.4 N 9 15 5 8 1006.5 - 0.0
20/07:00pm 31.0 35.0 23.1 63 5.4 N 7 13 4 7 1006.1 - 0.0
20/06:30pm 31.4 35.0 23.0 61 5.8 N 9 17 5 9 1005.8 - 0.0
20/06:00pm 31.5 34.5 23.3 61 5.7 N 13 20 7 11 1005.6 1005.4 0.0
20/05:30pm 32.4 35.8 23.3 58 6.3 N 11 22 6 12 1005.6 - 0.0
20/05:00pm 32.4 34.5 23.1 58 6.4 N 17 28 9 15 1005.3 - 0.0
20/04:30pm 32.6 34.5 23.8 59 6.1 N 20 32 11 17 1005.5 - 0.0
20/04:00pm 33.5 36.7 24.9 60 6.1 NNW 17 35 9 19 1005.1 - 0.0
20/03:30pm 33.0 35.4 24.2 60 6.2 N 19 28 10 15 1005.5 - 0.0
20/03:00pm 33.8 36.8 25.2 60 6.1 N 19 30 10 16 1005.5 1005.3 0.0
20/02:30pm 34.5 36.5 22.9 51 8.0 N 17 24 9 13 1005.9 - 0.0
20/02:00pm 34.5 36.9 22.9 51 8.0 N 15 24 8 13 1006.3 - 0.0
20/01:30pm 34.4 36.8 23.7 53 7.5 N 17 28 9 15 1006.7 - 0.0
20/01:00pm 34.6 36.8 23.3 52 7.9 N 17 28 9 15 1007.2 - 0.0
20/12:30pm 35.1 38.0 24.4 54 7.5 N 17 32 9 17 1007.6 - 0.0
20/12:00pm 34.5 37.4 23.2 51 7.9 N 13 28 7 15 1007.9 1007.7 0.0
20/11:30am 34.9 37.8 23.2 50 8.1 N 13 24 7 13 1008.5 - 0.0
20/11:00am 34.4 38.0 23.7 53 7.5 N 11 17 6 9 1009.1 - 0.0
20/10:30am 34.2 36.6 22.3 50 8.2 NNW 13 20 7 11 1009.4 - 0.0
20/10:00am 34.2 36.6 22.9 51 7.8 WNW 15 24 8 13 1009.7 - 0.0
20/09:30am 32.4 35.3 22.5 56 6.8 WNW 11 17 6 9 1010.0 - 0.0
20/09:00am 31.9 35.3 23.4 60 5.9 W 11 19 6 10 1010.3 1010.1 0.0
20/08:30am 31.6 35.7 23.9 63 5.4 W 9 13 5 7 1010.3 - 0.0
20/08:00am 30.5 35.3 24.4 70 4.3 SW 7 11 4 6 1010.2 - 0.0
20/07:30am 29.5 35.0 24.6 75 3.4 SSW 4 9 2 5 1009.8 - 0.0
20/07:00am 28.9 35.0 24.5 77 3.1 CALM 0 6 0 3 1009.8 - 0.0
20/06:30am 28.1 34.2 24.5 81 2.5 CALM 0 0 0 0 1009.4 - 0.0
20/06:00am 27.7 33.6 24.1 81 2.5 CALM 0 0 0 0 1008.9 1008.7 0.0
20/05:30am 27.9 33.8 24.1 80 2.6 CALM 0 0 0 0 1008.4 - 0.0
20/05:00am 28.0 33.1 24.0 79 2.8 NW 4 7 2 4 1007.8 - 0.0
20/04:30am 28.7 34.0 24.3 77 3.1 W 4 7 2 4 1007.9 - 0.0
20/04:00am 29.1 33.7 23.8 73 3.7 NW 6 9 3 5 1007.8 - 0.0
20/03:30am 29.3 34.0 24.0 73 3.7 NNW 6 7 3 4 1007.8 - 0.0
20/03:00am 29.5 34.5 23.9 72 3.9 N 4 7 2 4 1008.0 1007.8 0.0
20/02:30am 29.8 34.4 24.2 72 3.9 NNW 7 13 4 7 1008.0 - 0.0
20/02:00am 29.8 34.4 24.2 72 3.9 N 7 11 4 6 1008.4 - 0.0
20/01:30am 29.7 34.3 24.1 72 3.9 N 7 11 4 6 1008.6 - 0.0
20/01:00am 29.6 34.6 23.8 71 4.0 N 4 7 2 4 1009.2 - 0.0
20/12:30am 29.9 34.7 24.1 71 4.0 N 6 9 3 5 1009.5 - 0.0
20/12:00am 29.6 34.8 24.2 73 3.8 NNE 4 7 2 4 1009.8 1009.6 0.0
 
Date/Time
CST
Temp
°C
App
Temp
°C
Dew
Point
Rel
Hum
%
Delta-T
°C
Wind Press
QNH
hPa
Press
MSL
hPa
Rain
since 9 am
mm
Dir
 
Spd
km/h
Gust
km/h
Spd
kts
Gust
kts
19/11:30pm 29.8 35.5 24.4 73 3.8 N 2 7 1 4 1010.3 - 0.0
19/11:00pm 30.0 35.3 24.4 72 3.9 N 4 9 2 5 1010.5 - 0.0
19/10:30pm 30.2 35.0 24.4 71 4.0 NE 7 11 4 6 1010.4 - 0.0
19/10:00pm 30.2 35.3 24.6 72 3.9 NE 6 11 3 6 1010.2 - 0.0
19/09:30pm 30.5 35.0 24.6 70 4.1 NNE 9 15 5 8 1010.1 - 0.0
19/09:00pm 30.5 35.3 24.4 70 4.3 NNE 7 13 4 7 1009.9 1009.7 0.0
19/08:30pm 30.6 35.0 24.5 70 4.3 N 9 17 5 9 1009.3 - 0.0
19/08:00pm 30.6 35.0 24.5 70 4.3 N 9 15 5 8 1008.9 - 0.0
19/07:30pm 30.7 35.1 24.4 69 4.4 N 9 15 5 8 1008.3 - 0.0
19/07:00pm 30.9 35.1 24.1 67 4.7 N 9 17 5 9 1007.6 - 0.0
19/06:30pm 31.2 34.6 24.1 66 4.9 N 13 20 7 11 1007.1 - 0.0
19/06:00pm 31.7 35.5 24.0 63 5.4 N 11 19 6 10 1007.0 1006.8 0.0
19/05:30pm 32.2 34.9 23.4 59 6.1 N 15 24 8 13 1006.9 - 0.0
19/05:00pm 32.7 36.0 23.9 60 6.1 NNW 13 24 7 13 1006.7 - 0.0
19/04:30pm 33.4 37.0 23.7 56 6.8 N 11 22 6 12 1006.7 - 0.0
19/04:00pm 34.1 36.8 22.8 51 7.8 NNW 13 22 7 12 1006.5 - 0.0
19/03:30pm 33.8 36.3 23.2 54 7.3 N 15 26 8 14 1006.9 - 0.0
19/03:00pm 33.2 35.4 23.2 55 6.9 N 17 24 9 13 1007.5 1007.3 0.0
19/02:30pm 33.4 36.4 23.4 55 6.9 N 13 22 7 12 1007.8 - 0.0
19/02:00pm 34.0 36.5 23.1 53 7.5 N 15 24 8 13 1008.2 - 0.0
19/01:30pm 34.9 38.6 24.5 54 7.3 N 13 20 7 11 1008.6 - 0.0
19/01:00pm 35.7 38.7 23.3 48 8.6 NNE 13 22 7 12 1008.9 - 0.0
19/12:30pm 34.4 37.3 23.1 51 7.8 N 13 22 7 12 1009.3 - 0.0
19/12:00pm 34.7 38.4 24.6 55 7.1 N 13 28 7 15 1009.8 1009.6 0.0
19/11:30am 33.8 36.9 23.5 55 7.2 N 13 22 7 12 1010.3 - 0.0
19/11:00am 33.4 36.4 24.0 58 6.6 N 15 20 8 11 1010.5 - 0.0
19/10:30am 33.4 36.6 23.7 56 6.8 N 13 19 7 10 1010.7 - 0.0
19/10:00am 34.1 38.1 23.8 55 7.2 W 9 17 5 9 1010.9 - 0.0
19/09:30am 32.8 36.3 22.9 56 6.8 WNW 9 13 5 7 1011.0 - 0.0
19/09:00am 32.3 36.0 23.3 59 6.2 NW 9 15 5 8 1010.9 1010.7 0.0
19/08:30am 32.1 36.0 24.2 63 5.5 WNW 11 17 6 9 1010.8 - 0.0
19/08:00am 31.4 34.7 24.5 67 4.8 W 15 20 8 11 1010.5 - 0.0
19/07:30am 30.7 35.3 24.8 71 4.1 WNW 9 13 5 7 1010.7 - 0.0
19/07:00am 29.3 35.8 25.1 78 3.0 CALM 0 0 0 0 1010.3 - 0.0
19/06:30am 28.0 34.5 25.0 84 2.1 CALM 0 0 0 0 1010.0 - 0.0
19/06:00am 27.7 34.1 24.9 85 2.0 CALM 0 0 0 0 1009.8 1009.6 0.0
19/05:30am 27.8 34.1 24.8 84 2.1 CALM 0 0 0 0 1009.5 - 0.0
19/05:00am 27.8 34.1 24.8 84 2.1 CALM 0 4 0 2 1009.3 - 0.0
19/04:30am 27.9 34.3 24.9 84 2.1 CALM 0 0 0 0 1009.2 - 0.0
19/04:00am 28.1 34.6 25.1 84 2.1 CALM 0 0 0 0 1009.1 - 0.0
19/03:30am 28.1 34.4 24.7 82 2.4 CALM 0 0 0 0 1008.8 - 0.0
19/03:00am 28.1 34.2 24.5 81 2.5 CALM 0 0 0 0 1008.5 1008.3 0.0
19/02:30am 28.7 35.1 24.9 80 2.7 CALM 0 0 0 0 1008.5 - 0.0
19/02:00am 28.6 34.7 25.0 81 2.5 NW 2 7 1 4 1008.6 - 0.0
19/01:30am 28.3 34.6 24.7 81 2.5 CALM 0 6 0 3 1008.9 - 0.0
19/01:00am 28.9 34.8 24.7 78 2.9 W 2 7 1 4 1009.3 - 0.0
19/12:30am 29.3 34.5 24.8 77 3.1 WNW 6 7 3 4 1009.9 - 0.0
19/12:00am 29.5 34.7 24.8 76 3.3 NNW 6 7 3 4 1010.0 1009.8 0.0
 
Date/Time
CST
Temp
°C
App
Temp
°C
Dew
Point
Rel
Hum
%
Delta-T
°C
Wind Press
QNH
hPa
Press
MSL
hPa
Rain
since 9 am
mm
Dir
 
Spd
km/h
Gust
km/h
Spd
kts
Gust
kts
18/11:30pm 29.8 34.9 24.9 75 3.4 NW 7 9 4 5 1010.0 - 0.0
18/11:00pm 29.9 35.0 25.0 75 3.4 NNW 7 11 4 6 1009.9 - 0.0
18/10:30pm 29.9 35.0 25.0 75 3.4 NNW 7 11 4 6 1009.6 - 0.0
18/10:00pm 29.9 35.2 25.0 75 3.4 NNW 6 9 3 5 1009.4 - 0.0
18/09:30pm 30.1 35.2 24.7 73 3.8 NNW 6 11 3 6 1009.1 - 0.0
18/09:00pm 30.4 35.4 24.8 72 3.9 NW 7 11 4 6 1008.7 1008.5 0.0
18/08:30pm 30.5 35.2 24.9 72 3.9 NNW 9 15 5 8 1008.2 - 0.0
18/08:00pm 30.4 35.4 24.8 72 3.9 NNW 7 13 4 7 1007.6 - 0.0
18/07:30pm 30.6 35.0 24.5 70 4.3 NNW 9 15 5 8 1007.4 - 0.0
18/07:00pm 30.7 35.3 24.8 71 4.1 N 9 15 5 8 1007.3 - 0.0
18/06:30pm 31.2 35.3 24.6 68 4.6 NNW 11 15 6 8 1007.2 - 0.0
18/06:00pm 31.2 34.8 24.3 66 4.8 N 13 24 7 13 1006.9 1006.7 0.0
18/05:30pm 32.0 35.7 24.6 65 5.2 N 13 19 7 10 1006.6 - 0.0
18/05:00pm 32.3 36.0 25.1 65 5.1 N 15 26 8 14 1006.7 - 0.0
18/04:30pm 32.5 35.9 25.3 66 5.1 N 17 26 9 14 1006.5 - 0.0

Other Formats:

Comma delimited format used in spreadsheet applications
http://www.bom.gov.au/fwo/IDD60801/IDD60801.94140.axf

JavaScript Object Notation format (JSON) in row-major order
http://www.bom.gov.au/fwo/IDD60801/IDD60801.94140.json